Time;durP1;ratioP1;P1;durP2;ratioP2;P2;SDS_P1;SDS_P2;PMS_P1;PMS_P2;Temp;Humidity;BMP_temperature;BMP_pressure;BME280_temperature;BME280_humidity;BME280_pressure;Samples;Min_cycle;Max_cycle;Signal;HPM_P1;HPM_P2
2022/09/01 00:01:17;;;;;;;4.00;2.08;;;;;;;14.41;74.56;102261.00;4974541;28;20047;-82
2022/09/01 00:03:47;;;;;;;3.35;2.10;;;;;;;14.37;74.38;102249.63;4974070;28;20577;-82
2022/09/01 00:06:21;;;;;;;2.58;1.85;;;;;;;14.34;74.31;102245.13;4974091;28;20107;-82
2022/09/01 00:08:49;;;;;;;4.75;1.90;;;;;;;14.30;74.85;102245.22;4974486;28;20043;-82
2022/09/01 00:11:17;;;;;;;3.67;2.20;;;;;;;14.25;75.14;102243.09;4974361;28;20043;-82
2022/09/01 00:13:43;;;;;;;9.32;1.98;;;;;;;14.22;75.18;102240.50;4974221;28;20047;-82
2022/09/01 00:16:12;;;;;;;2.28;2.08;;;;;;;14.18;75.49;102240.63;4974110;28;20047;-82
2022/09/01 00:18:44;;;;;;;2.13;2.03;;;;;;;14.14;76.03;102242.66;4973963;28;20075;-83
2022/09/01 00:21:11;;;;;;;;;;;;;;;14.14;74.17;102234.63;4974150;28;20043;-82
2022/09/01 00:23:38;;;;;;;2.53;2.20;;;;;;;14.08;76.15;102239.00;4974209;28;19926;-82
2022/09/01 00:26:05;;;;;;;3.45;1.80;;;;;;;14.02;76.53;102244.13;4973225;28;20043;-82
2022/09/01 00:28:33;;;;;;;3.88;2.00;;;;;;;14.01;76.02;102244.56;4972678;28;20492;-82
2022/09/01 00:30:59;;;;;;;2.20;1.75;;;;;;;13.97;76.92;102243.94;4973874;28;20052;-82
2022/09/01 00:33:26;;;;;;;3.92;2.30;;;;;;;13.94;76.79;102239.44;4973721;28;20051;-82
2022/09/01 00:35:53;;;;;;;2.40;2.17;;;;;;;13.88;77.01;102244.56;4973187;28;20047;-82
2022/09/01 00:38:19;;;;;;;2.10;1.98;;;;;;;13.85;77.30;102248.06;4988792;28;20059;-82
2022/09/01 00:40:46;;;;;;;3.63;2.10;;;;;;;13.81;77.94;102238.63;4973956;28;20048;-82
2022/09/01 00:43:20;;;;;;;2.67;2.40;;;;;;;13.78;77.92;102234.88;4971757;28;20051;-82
2022/09/01 00:45:50;;;;;;;2.10;2.00;;;;;;;13.75;78.12;102238.41;4973973;28;20501;-82
2022/09/01 00:48:19;;;;;;;5.90;2.67;;;;;;;13.72;78.46;102238.50;4972397;28;20134;-82
2022/09/01 00:50:46;;;;;;;2.40;2.20;;;;;;;13.69;78.38;102234.75;4971926;28;20047;-82
2022/09/01 00:53:17;;;;;;;;;;;;;;;13.66;76.73;102230.25;4972661;28;20492;-82
2022/09/01 00:55:44;;;;;;;4.45;2.40;;;;;;;13.60;78.73;102226.59;4972073;28;20387;-82
2022/09/01 00:58:11;;;;;;;2.67;2.47;;;;;;;13.56;79.66;102225.97;4973446;28;20043;-82
2022/09/01 01:00:48;;;;;;;2.70;2.50;;;;;;;13.52;79.56;102219.94;4972225;28;20059;-82
2022/09/01 01:03:15;;;;;;;4.63;2.45;;;;;;;13.50;79.89;102225.72;4973490;28;20059;-82
2022/09/01 01:05:56;;;;;;;2.30;2.20;;;;;;;13.47;79.26;102225.81;4970765;28;20063;-84
2022/09/01 01:08:33;;;;;;;2.75;2.40;;;;;;;13.45;79.84;102225.50;4972904;28;20571;-82
2022/09/01 01:11:08;;;;;;;2.35;2.17;;;;;;;13.41;79.94;102228.25;4955872;28;20505;-82
2022/09/01 01:13:48;;;;;;;2.78;2.55;;;;;;;13.39;79.92;102222.56;4973350;28;20385;-82
2022/09/01 01:16:14;;;;;;;2.45;2.35;;;;;;;13.37;80.61;102221.50;4973503;28;20043;-82
2022/09/01 01:18:42;;;;;;;8.45;2.65;;;;;;;13.34;80.59;102228.44;4972466;28;20058;-82
2022/09/01 01:24:36;;;;;;;2.65;2.40;;;;;;;13.30;80.12;102225.09;4990701;28;21023;-81
2022/09/01 01:27:04;;;;;;;2.60;2.13;;;;;;;13.25;80.72;102223.69;4989466;28;20055;-82
2022/09/01 01:29:34;;;;;;;2.42;2.28;;;;;;;13.24;81.04;102216.09;4989518;28;20134;-82
2022/09/01 01:32:02;;;;;;;2.65;2.45;;;;;;;13.21;81.39;102220.34;4990485;28;20047;-82
2022/09/01 01:34:28;;;;;;;2.40;2.30;;;;;;;13.17;81.33;102219.72;4991043;28;20449;-82
2022/09/01 01:36:58;;;;;;;2.47;2.30;;;;;;;13.13;81.49;102212.94;4990778;28;20074;-82
2022/09/01 01:39:25;;;;;;;5.15;2.53;;;;;;;13.11;81.16;102213.34;4990740;28;20511;-81
2022/09/01 01:41:56;;;;;;;2.45;2.25;;;;;;;13.10;81.54;102216.44;4992159;28;20494;-82
2022/09/01 01:44:26;;;;;;;2.92;2.72;;;;;;;13.09;81.29;102220.28;4992286;28;20039;-81
2022/09/01 01:46:56;;;;;;;2.63;2.22;;;;;;;13.05;81.61;102219.63;4990807;28;20145;-82
2022/09/01 01:49:27;;;;;;;2.38;2.28;;;;;;;12.99;81.73;102214.78;4990713;28;20054;-81
2022/09/01 01:51:56;;;;;;;6.25;2.50;;;;;;;12.97;82.19;102216.38;4992049;28;20049;-82
2022/09/01 01:54:31;;;;;;;4.38;2.33;;;;;;;12.95;82.56;102224.81;5006851;28;20050;-82
2022/09/01 01:56:58;;;;;;;2.60;2.47;;;;;;;12.93;82.29;102216.47;4990545;28;20050;-82
2022/09/01 01:59:25;;;;;;;2.78;2.38;;;;;;;12.90;82.74;102222.66;4990397;28;20121;-82
2022/09/01 02:01:52;;;;;;;2.95;2.50;;;;;;;12.89;83.20;102223.06;4990041;28;20150;-82
2022/09/01 02:04:20;;;;;;;4.35;2.60;;;;;;;12.87;82.79;102220.06;5007018;28;20074;-82
2022/09/01 02:06:48;;;;;;;4.50;2.75;;;;;;;12.86;82.92;102218.56;4990808;28;20051;-82
2022/09/01 02:09:18;;;;;;;2.90;2.22;;;;;;;12.82;83.47;102215.97;4990852;28;20054;-82
2022/09/01 02:11:45;;;;;;;2.53;2.25;;;;;;;12.82;83.42;102217.88;4990375;28;20064;-82
2022/09/01 02:14:12;;;;;;;5.38;2.50;;;;;;;12.80;83.47;102217.56;4990403;28;20065;-82
2022/09/01 02:16:41;;;;;;;2.40;2.30;;;;;;;12.79;83.67;102218.75;5006451;28;20055;-82
2022/09/01 02:19:11;;;;;;;3.00;2.70;;;;;;;12.77;84.07;102221.84;4990284;28;20516;-82
2022/09/01 02:21:43;;;;;;;5.10;2.50;;;;;;;12.76;83.71;102222.25;4990552;28;20050;-81
2022/09/01 02:24:11;;;;;;;4.30;2.53;;;;;;;12.76;84.04;102228.34;4990263;28;20051;-81
2022/09/01 02:26:44;;;;;;;8.02;2.65;;;;;;;12.76;83.96;102228.34;4990096;28;20138;-81
2022/09/01 02:29:19;;;;;;;3.17;2.67;;;;;;;12.74;83.91;102217.31;4990382;28;20057;-81
2022/09/01 02:31:51;;;;;;;2.70;2.50;;;;;;;12.73;83.65;102220.41;4991562;28;20047;-81
2022/09/01 02:34:18;;;;;;;;;;;;;;;12.70;82.91;102219.31;4992113;28;20043;-81
2022/09/01 02:36:48;;;;;;;2.85;2.60;;;;;;;12.67;84.15;102218.25;4990591;28;19937;-81
2022/09/01 02:39:25;;;;;;;6.32;2.85;;;;;;;12.66;83.99;102222.09;4990289;28;20149;-81
2022/09/01 02:41:52;;;;;;;2.83;2.60;;;;;;;12.67;83.98;102220.16;4990148;28;20066;-80
2022/09/01 02:44:23;;;;;;;2.65;2.45;;;;;;;12.67;83.83;102218.25;4989982;28;20051;-81
2022/09/01 02:46:49;;;;;;;2.60;2.40;;;;;;;12.66;84.23;102224.00;4989822;28;20082;-81
2022/09/01 02:49:24;;;;;;;2.72;2.50;;;;;;;12.64;84.03;102219.06;5009434;28;20055;-81
2022/09/01 02:51:55;;;;;;;3.90;2.60;;;;;;;12.63;84.29;102230.19;4993282;28;20055;-80
2022/09/01 02:54:23;;;;;;;3.75;2.60;;;;;;;12.61;83.88;102224.50;4993374;28;20055;-80
2022/09/01 02:56:53;;;;;;;3.67;2.78;;;;;;;12.59;84.21;102219.56;4993299;28;20432;-80
2022/09/01 02:59:25;;;;;;;3.65;2.45;;;;;;;12.58;84.13;102211.97;4993455;28;20550;-80
2022/09/01 03:01:52;;;;;;;2.72;2.35;;;;;;;12.55;83.97;102208.22;4992968;28;20109;-80
2022/09/01 03:04:21;;;;;;;2.70;2.50;;;;;;;12.54;84.18;102208.63;4993308;28;20081;-79
2022/09/01 03:06:49;;;;;;;2.90;2.70;;;;;;;12.51;83.96;102210.22;5009726;28;20058;-80
2022/09/01 03:09:17;;;;;;;2.97;2.67;;;;;;;12.51;84.17;102215.56;4993224;28;20055;-80
2022/09/01 03:11:48;;;;;;;5.05;2.55;;;;;;;12.50;83.88;102206.03;4993093;28;20043;-80
2022/09/01 03:14:15;;;;;;;5.07;2.63;;;;;;;12.50;83.79;102219.41;4994427;28;20628;-80
2022/09/01 03:16:42;;;;;;;3.17;2.83;;;;;;;12.49;83.79;102209.88;4992947;28;20075;-80
2022/09/01 03:19:10;;;;;;;3.00;2.50;;;;;;;12.48;83.55;102216.38;4993298;28;20492;-80
2022/09/01 03:21:41;;;;;;;4.35;2.55;;;;;;;12.48;83.57;102210.28;4992998;28;20074;-81
2022/09/01 03:24:14;;;;;;;2.75;2.38;;;;;;;12.46;84.13;102212.63;5009060;28;20433;-80
2022/09/01 03:26:42;;;;;;;4.38;2.50;;;;;;;12.44;83.70;102206.94;4992898;28;20063;-80
2022/09/01 03:29:09;;;;;;;4.07;2.50;;;;;;;12.43;83.71;102205.44;4992513;28;20495;-80
2022/09/01 03:31:36;;;;;;;5.13;2.45;;;;;;;12.41;84.14;102207.78;5009303;28;20053;-80
2022/09/01 03:34:04;;;;;;;3.22;2.47;;;;;;;12.40;83.85;102211.63;4992070;28;20102;-79
2022/09/01 03:36:36;;;;;;;3.60;2.80;;;;;;;12.38;83.96;102206.72;4992804;28;20058;-80
2022/09/01 03:39:03;;;;;;;4.78;2.50;;;;;;;12.36;84.35;102211.72;4992483;28;20050;-80
2022/09/01 03:41:31;;;;;;;9.00;3.05;;;;;;;12.35;83.90;102202.22;4992676;28;20046;-80
2022/09/01 03:43:58;;;;;;;3.30;3.00;;;;;;;12.30;84.27;102206.13;4992308;28;20050;-79
2022/09/01 03:46:30;;;;;;;2.70;2.50;;;;;;;12.30;84.61;102205.38;4992392;28;20110;-80
2022/09/01 03:49:06;;;;;;;7.57;2.63;;;;;;;12.28;84.33;102203.13;4976886;28;20126;-80
2022/09/01 03:51:37;;;;;;;2.53;2.33;;;;;;;12.24;84.78;102199.03;4992412;28;20061;-79
2022/09/01 03:54:04;;;;;;;3.30;2.80;;;;;;;12.21;84.48;102202.50;5008613;28;20057;-80
2022/09/01 03:56:32;;;;;;;2.95;2.67;;;;;;;12.19;84.90;102204.84;4992082;28;20047;-79
2022/09/01 03:58:59;;;;;;;3.25;2.92;;;;;;;12.17;84.70;102202.59;4991390;28;20051;-79
2022/09/01 04:01:31;;;;;;;2.80;2.60;;;;;;;12.16;84.56;102203.00;5007796;28;20058;-79
2022/09/01 04:04:00;;;;;;;3.08;2.80;;;;;;;12.14;84.25;102202.66;4991977;28;20042;-79
2022/09/01 04:06:29;;;;;;;2.90;2.70;;;;;;;12.11;84.65;102206.91;4992172;28;20059;-79
2022/09/01 04:09:01;;;;;;;5.38;2.63;;;;;;;12.09;84.50;102206.56;4993468;28;20133;-79
2022/09/01 04:11:31;;;;;;;3.58;2.38;;;;;;;12.09;84.33;102200.47;5008301;28;20055;-80
2022/09/01 04:13:58;;;;;;;4.75;2.95;;;;;;;12.06;84.88;102207.41;4992682;28;20050;-80
2022/09/01 04:19:19;;;;;;;3.28;2.97;;;;;;;12.01;84.98;102197.22;4993522;28;20503;-80
2022/09/01 04:21:52;;;;;;;2.80;2.60;;;;;;;11.99;85.15;102194.22;4992207;28;20055;-80
2022/09/01 04:24:23;;;;;;;3.30;2.92;;;;;;;11.97;85.20;102199.22;4993640;28;20090;-79
2022/09/01 04:26:51;;;;;;;7.53;2.90;;;;;;;11.95;85.43;102194.31;5007852;28;20107;-79
2022/09/01 04:29:26;;;;;;;3.70;3.00;;;;;;;11.95;84.78;102201.56;4991862;28;20101;-79
2022/09/01 04:32:00;;;;;;;3.20;2.60;;;;;;;11.91;85.11;102198.97;4975632;28;20500;-79
2022/09/01 04:34:35;;;;;;;3.15;2.90;;;;;;;11.90;85.15;102200.13;5007707;28;20051;-80
2022/09/01 04:37:16;;;;;;;4.45;3.10;;;;;;;11.87;85.42;102198.28;4991362;28;20102;-80
2022/09/01 04:39:51;;;;;;;3.47;3.17;;;;;;;11.85;84.77;102191.84;4991541;28;20050;-80
2022/09/01 04:42:27;;;;;;;3.17;2.88;;;;;;;11.84;85.26;102195.69;4991080;28;20129;-80
2022/09/01 04:44:56;;;;;;;3.15;2.95;;;;;;;11.82;85.58;102192.66;4991258;28;20050;-80
2022/09/01 04:47:28;;;;;;;6.18;2.83;;;;;;;11.81;85.32;102196.50;4992660;28;20047;-80
2022/09/01 04:50:12;;;;;;;3.85;2.97;;;;;;;11.80;85.31;102193.09;4990960;28;20050;-80
2022/09/01 04:52:41;;;;;;;3.08;2.88;;;;;;;11.78;85.25;102190.06;4990787;28;20050;-79
2022/09/01 04:55:17;;;;;;;4.93;2.65;;;;;;;11.76;85.65;102187.03;5007105;28;20056;-79
2022/09/01 04:57:48;;;;;;;3.53;3.20;;;;;;;11.77;85.28;102190.47;4992191;28;20504;-79
2022/09/01 05:00:21;;;;;;;4.57;2.97;;;;;;;11.76;85.68;102196.94;4991553;28;20050;-79
2022/09/01 05:02:53;;;;;;;4.63;3.00;;;;;;;11.78;85.11;102194.66;4990879;28;20089;-78
2022/09/01 05:05:23;;;;;;;7.78;2.92;;;;;;;11.78;85.48;102198.06;4990395;28;20055;-79
2022/09/01 05:07:51;;;;;;;3.60;3.05;;;;;;;11.77;85.69;102195.81;4992568;28;20090;-79
2022/09/01 05:10:21;;;;;;;4.25;3.00;;;;;;;11.79;85.25;102202.25;4974873;28;20050;-79
2022/09/01 05:13:11;;;;;;;6.82;3.10;;;;;;;11.82;85.21;102203.34;4990869;28;20058;-79
2022/09/01 05:15:45;;;;;;;4.38;3.10;;;;;;;11.84;85.16;102207.09;4990661;28;20078;-79
2022/09/01 05:18:22;;;;;;;3.35;3.05;;;;;;;11.89;84.91;102206.63;4990586;28;20058;-79
2022/09/01 05:20:51;;;;;;;3.80;2.95;;;;;;;11.90;84.49;102205.47;4974567;28;20479;-78
2022/09/01 05:23:18;;;;;;;3.72;3.42;;;;;;;11.94;84.71;102208.81;4990960;28;20046;-79
2022/09/01 05:25:48;;;;;;;4.93;3.53;;;;;;;11.98;85.02;102211.41;4990422;28;20074;-79
2022/09/01 05:28:17;;;;;;;3.60;3.30;;;;;;;12.01;84.11;102205.22;4991122;28;20054;-79
2022/09/01 05:30:46;;;;;;;4.53;3.00;;;;;;;12.06;84.65;102204.72;4990651;28;20113;-79
2022/09/01 05:33:15;;;;;;;3.13;2.92;;;;;;;12.09;84.16;102208.50;4990539;28;20054;-79
2022/09/01 05:35:58;;;;;;;5.35;2.88;;;;;;;12.14;83.58;102203.41;4990755;28;20054;-79
2022/09/01 05:38:26;;;;;;;9.93;3.80;;;;;;;12.20;83.44;102206.34;4990551;28;20055;-79
2022/09/01 05:41:03;;;;;;;3.25;3.00;;;;;;;12.24;83.19;102212.38;4989826;28;20050;-78
2022/09/01 05:43:32;;;;;;;5.03;3.00;;;;;;;12.31;83.29;102209.53;4990674;28;20073;-79
2022/09/01 05:45:59;;;;;;;3.05;2.80;;;;;;;12.41;82.21;102200.53;4990345;28;20071;-80
2022/09/01 05:48:38;;;;;;;3.38;3.08;;;;;;;12.97;82.16;102211.03;4990899;28;20528;-80
2022/09/01 05:51:07;;;;;;;6.15;3.08;;;;;;;15.05;75.23;102205.34;4990817;28;20397;-80
2022/09/01 05:53:57;;;;;;;4.03;3.30;;;;;;;17.27;65.97;102215.28;4990036;28;20512;-80
2022/09/01 05:56:29;;;;;;;7.28;2.90;;;;;;;18.56;60.28;102210.94;4990596;28;20058;-79
2022/09/01 05:58:56;;;;;;;5.65;2.70;;;;;;;19.31;57.04;102216.06;4990583;28;20058;-79
2022/09/01 06:01:44;;;;;;;3.20;3.00;;;;;;;20.16;53.79;102214.22;4992066;28;20042;-80
2022/09/01 06:04:16;;;;;;;4.07;2.35;;;;;;;20.74;52.06;102222.59;4974528;28;20129;-77
2022/09/01 06:06:48;;;;;;;2.55;2.45;;;;;;;21.22;50.05;102223.59;4990653;28;20047;-78
2022/09/01 06:09:38;;;;;;;7.38;2.78;;;;;;;21.55;50.17;102228.59;5006496;28;20051;-78
2022/09/01 06:12:05;;;;;;;3.55;2.67;;;;;;;21.74;48.05;102222.81;4992168;28;20500;-78
2022/09/01 06:14:33;;;;;;;3.58;2.85;;;;;;;21.71;47.74;102232.66;4989881;28;20054;-80
2022/09/01 06:17:00;;;;;;;2.60;2.50;;;;;;;21.70;46.83;102225.00;4990437;28;20062;-75
2022/09/01 06:19:27;;;;;;;5.45;3.50;;;;;;;21.64;47.83;102222.97;4990588;28;20074;-77
2022/09/01 06:21:58;;;;;;;3.83;2.75;;;;;;;21.35;48.14;102228.66;4990174;28;20051;-78
2022/09/01 06:24:26;;;;;;;4.00;2.50;;;;;;;21.07;48.24;102228.38;4992469;28;20419;-79
2022/09/01 06:26:53;;;;;;;3.25;2.47;;;;;;;20.81;48.70;102227.56;5009666;28;20130;-78
2022/09/01 06:29:20;;;;;;;2.45;2.25;;;;;;;20.45;49.56;102224.22;4977279;28;20138;-79
2022/09/01 06:31:51;;;;;;;2.90;2.70;;;;;;;20.23;49.54;102219.25;4993581;28;20368;-78
2022/09/01 06:34:19;;;;;;;4.47;2.65;;;;;;;19.73;50.57;102221.19;4977511;28;20500;-80
2022/09/01 06:36:50;;;;;;;5.28;4.45;;;;;;;19.13;52.81;102227.78;4995285;28;20043;-83
2022/09/01 06:39:18;;;;;;;3.03;2.70;;;;;;;18.85;53.92;102226.50;4993087;28;20515;-81
2022/09/01 06:41:51;;;;;;;3.45;2.65;;;;;;;18.63;54.50;102232.94;4993250;28;20625;-80
2022/09/01 06:44:23;;;;;;;7.00;2.50;;;;;;;18.49;54.95;102233.59;4993359;28;20085;-80
2022/09/01 06:47:01;;;;;;;3.15;2.55;;;;;;;18.25;55.36;102230.91;5009879;28;20492;-79
2022/09/01 06:49:35;;;;;;;3.38;2.42;;;;;;;18.16;56.07;102238.28;4993139;28;20055;-79
2022/09/01 06:52:07;;;;;;;4.03;2.17;;;;;;;18.17;55.83;102240.50;4993898;28;20094;-78
2022/09/01 06:54:37;;;;;;;2.80;2.50;;;;;;;18.17;55.53;102232.44;5009446;28;20051;-79
2022/09/01 06:57:05;;;;;;;5.85;3.15;;;;;;;18.25;55.82;102233.59;4993194;28;20046;-78
2022/09/01 06:59:52;;;;;;;5.05;2.20;;;;;;;18.13;55.65;102239.19;4993077;28;20051;-79
2022/09/01 07:02:21;;;;;;;2.78;2.20;;;;;;;18.09;55.64;102241.28;4994707;28;20133;-78
2022/09/01 07:05:20;;;;;;;5.68;2.20;;;;;;;18.20;54.99;102244.25;4992446;28;20100;-78
2022/09/01 07:08:09;;;;;;;3.75;2.60;;;;;;;18.18;55.22;102244.69;4992301;28;20113;-78
2022/09/01 07:11:05;;;;;;;2.92;2.38;;;;;;;18.28;55.56;102243.47;4992291;28;20149;-78
2022/09/01 07:14:00;;;;;;;4.18;2.28;;;;;;;18.36;54.75;102249.28;4992679;28;20491;-77
2022/09/01 07:16:42;;;;;;;5.65;2.15;;;;;;;18.48;54.59;102242.16;4977399;28;20052;-78
2022/09/01 07:19:19;;;;;;;4.90;2.08;;;;;;;18.52;54.16;102243.47;4954242;28;20087;-81
2022/09/01 07:21:54;;;;;;;2.58;2.38;;;;;;;18.55;54.42;102249.91;4953411;28;20107;-78
2022/09/01 07:24:44;;;;;;;6.85;2.28;;;;;;;18.64;53.27;102245.22;4955109;28;20552;-78
2022/09/01 07:27:49;;;;;;;4.78;2.17;;;;;;;18.77;53.17;102241.56;4953901;28;20122;-78
2022/09/01 07:30:19;;;;;;;4.72;2.65;;;;;;;18.94;53.48;102251.47;4969914;28;20051;-77
2022/09/01 07:32:49;;;;;;;4.10;2.00;;;;;;;19.07;52.69;102245.81;4969754;28;20108;-78
2022/09/01 07:35:40;;;;;;;7.35;2.08;;;;;;;19.12;52.25;102247.88;4951933;28;20134;-78
2022/09/01 07:38:27;;;;;;;7.05;2.05;;;;;;;19.28;52.40;102244.72;4970010;28;20052;-78
2022/09/01 07:41:14;;;;;;;4.55;1.95;;;;;;;19.42;51.40;102237.13;4969965;28;20052;-79
2022/09/01 07:44:21;;;;;;;2.60;2.15;;;;;;;19.47;51.25;102244.56;4969814;28;20052;-79
2022/09/01 07:47:08;;;;;;;4.32;1.98;;;;;;;19.63;51.68;102242.16;4953667;28;20060;-80
2022/09/01 07:49:55;;;;;;;2.10;1.85;;;;;;;19.85;49.94;102246.44;4969346;28;20046;-80
2022/09/01 07:52:42;;;;;;;5.45;2.78;;;;;;;19.89;50.80;102247.75;4955168;28;20119;-80
2022/09/01 07:55:14;;;;;;;2.53;1.60;;;;;;;20.04;50.27;102250.41;4953284;28;20536;-80
2022/09/01 07:57:45;;;;;;;1.65;1.55;;;;;;;20.10;49.81;102243.13;4969701;28;20056;-79
2022/09/01 08:00:15;;;;;;;2.20;1.70;;;;;;;20.24;49.01;102250.47;4952776;28;20428;-79
2022/09/01 08:02:50;;;;;;;3.40;1.70;;;;;;;20.37;48.71;102249.41;4952966;28;20055;-79
2022/09/01 08:05:25;;;;;;;2.13;1.75;;;;;;;20.54;48.91;102247.69;4968399;28;20056;-77
2022/09/01 08:07:53;;;;;;;6.32;1.65;;;;;;;20.75;49.51;102251.91;4953311;28;20134;-78
2022/09/01 08:10:25;;;;;;;3.33;1.40;;;;;;;20.95;48.08;102249.16;4969593;28;20052;-77
2022/09/01 08:12:55;;;;;;;4.20;1.80;;;;;;;20.94;47.57;102247.66;4953110;28;20056;-77
2022/09/01 08:15:23;;;;;;;4.82;1.60;;;;;;;21.07;46.77;102238.47;4952802;28;20052;-77
2022/09/01 08:18:11;;;;;;;2.17;1.70;;;;;;;21.25;46.82;102246.28;4953177;28;20074;-77
2022/09/01 08:20:44;;;;;;;1.65;1.48;;;;;;;21.30;47.40;102246.34;4968852;28;20355;-77
2022/09/01 08:23:30;;;;;;;5.50;1.40;;;;;;;21.38;46.65;102254.03;4954604;28;20074;-76
2022/09/01 08:25:57;;;;;;;1.52;1.42;;;;;;;21.49;46.51;102241.34;4969123;28;20268;-76
2022/09/01 08:28:24;;;;;;;4.15;1.88;;;;;;;21.57;45.35;102242.41;4969020;28;20139;-76
2022/09/01 08:30:55;;;;;;;3.03;1.50;;;;;;;21.72;45.13;102246.94;4969029;28;20056;-76
2022/09/01 08:33:24;;;;;;;14.80;1.40;;;;;;;21.85;44.67;102250.00;4968501;28;20103;-78
2022/09/01 08:35:50;;;;;;;1.95;1.27;;;;;;;21.88;44.40;102252.50;4969061;28;20455;-78
2022/09/01 08:38:18;;;;;;;3.70;1.27;;;;;;;21.96;43.43;102245.41;4952942;28;20059;-78
2022/09/01 08:40:53;;;;;;;1.60;1.40;;;;;;;22.16;43.16;102247.28;4953091;28;20513;-78
2022/09/01 08:43:38;;;;;;;7.35;1.40;;;;;;;22.36;44.09;102242.94;4967904;28;20052;-78
2022/09/01 08:46:36;;;;;;;5.60;1.50;;;;;;;22.44;44.19;102243.94;4968534;28;20056;-78
2022/09/01 08:49:11;;;;;;;2.28;1.50;;;;;;;22.59;43.65;102239.09;4968355;28;20061;-78
2022/09/01 08:52:12;;;;;;;3.05;1.33;;;;;;;22.55;43.40;102233.91;4954397;28;20060;-78
2022/09/01 08:54:49;;;;;;;10.55;1.77;;;;;;;22.62;43.64;102232.69;4952591;28;20063;-78
2022/09/01 08:57:26;;;;;;;1.45;1.45;;;;;;;22.75;42.81;102235.72;4968980;28;20107;-77
2022/09/01 09:00:19;;;;;;;1.67;1.10;;;;;;;22.76;41.77;102231.75;4953918;28;20454;-78
2022/09/01 09:03:22;;;;;;;3.75;1.40;;;;;;;22.90;42.60;102241.69;4954104;28;20168;-77
2022/09/01 09:06:09;;;;;;;2.38;1.40;;;;;;;23.03;41.39;102229.63;4964325;28;20060;-78
2022/09/01 09:08:42;;;;;;;7.18;1.40;;;;;;;23.10;39.46;102238.03;4952543;28;20063;-77
2022/09/01 09:11:17;;;;;;;5.57;1.35;;;;;;;23.10;40.48;102235.31;4953833;28;20111;-79
2022/09/01 09:13:59;;;;;;;3.92;1.30;;;;;;;23.21;40.29;102234.56;4953393;28;20560;-77
2022/09/01 09:16:45;;;;;;;2.17;1.30;;;;;;;23.35;39.27;102230.91;4954042;28;20048;-76
2022/09/01 09:19:28;;;;;;;1.42;1.33;;;;;;;23.31;39.91;102224.97;4968778;28;20628;-77
2022/09/01 09:21:57;;;;;;;2.78;1.30;;;;;;;23.38;39.58;102226.44;4953793;28;20047;-77
2022/09/01 09:24:51;;;;;;;3.75;1.33;;;;;;;23.40;39.39;102221.25;4953443;28;20040;-77
2022/09/01 09:27:31;;;;;;;1.58;1.40;;;;;;;23.47;39.47;102220.78;4954009;28;20128;-77
2022/09/01 09:30:00;;;;;;;2.08;1.20;;;;;;;23.55;38.88;102224.50;4953668;28;20052;-77
2022/09/01 09:32:48;;;;;;;2.55;1.58;;;;;;;23.56;38.09;102212.41;4967450;28;20052;-77
2022/09/01 09:35:43;;;;;;;1.45;1.00;;;;;;;23.67;37.55;102208.91;4953660;28;20547;-77
2022/09/01 09:38:21;;;;;;;2.40;1.00;;;;;;;23.79;36.47;102207.69;4953564;28;20058;-77
2022/09/01 09:41:28;;;;;;;3.80;1.10;;;;;;;23.97;37.11;102204.44;4953348;28;20057;-77
2022/09/01 09:43:57;;;;;;;4.13;0.90;;;;;;;24.04;36.38;102201.19;4953295;28;20155;-77
2022/09/01 09:46:30;;;;;;;1.85;1.35;;;;;;;24.07;36.07;102197.47;4952989;28;20048;-74
2022/09/01 09:49:33;;;;;;;0.95;0.93;;;;;;;24.19;35.90;102200.91;4953298;28;20054;-75
2022/09/01 09:52:08;;;;;;;1.10;1.00;;;;;;;24.21;35.63;102199.16;4953155;28;20495;-76
2022/09/01 09:54:37;;;;;;;3.42;1.10;;;;;;;24.29;34.50;102195.94;4953184;28;20063;-76
2022/09/01 09:57:13;;;;;;;1.00;1.00;;;;;;;24.45;34.74;102187.69;4953221;28;20222;-75
2022/09/01 09:59:45;;;;;;;1.30;0.93;;;;;;;24.57;35.17;102185.66;4955918;28;20051;-74
2022/09/01 10:02:31;;;;;;;1.10;1.10;;;;;;;24.82;35.94;102189.22;4956362;28;20086;-75
2022/09/01 10:05:18;;;;;;;1.40;1.05;;;;;;;24.88;33.96;102182.50;4954831;28;20064;-76
2022/09/01 10:07:45;;;;;;;4.47;1.15;;;;;;;24.92;32.97;102193.88;4956777;28;20058;-76
2022/09/01 10:10:42;;;;;;;2.70;0.93;;;;;;;24.96;34.12;102192.88;4956442;28;20086;-76
2022/09/01 10:13:18;;;;;;;5.75;0.73;;;;;;;25.01;32.90;102184.69;4956599;28;20055;-75
2022/09/01 10:15:51;;;;;;;3.28;1.05;;;;;;;25.14;32.48;102179.38;4956219;28;20098;-74
2022/09/01 10:18:34;;;;;;;4.07;1.00;;;;;;;25.37;32.90;102176.47;4956950;28;20051;-74
2022/09/01 10:21:06;;;;;;;3.03;1.27;;;;;;;25.38;32.27;102172.50;4954996;28;20047;-77
2022/09/01 10:23:36;;;;;;;0.90;0.90;;;;;;;25.32;32.30;102174.53;4956931;28;20588;-75
2022/09/01 10:26:16;;;;;;;1.95;1.23;;;;;;;25.31;32.85;102170.31;4956232;28;20099;-78
2022/09/01 10:29:01;;;;;;;2.75;0.90;;;;;;;25.31;32.47;102184.69;4956465;28;20080;-75
2022/09/01 10:31:28;;;;;;;1.38;0.88;;;;;;;25.16;31.78;102179.63;4955784;28;20047;-75
2022/09/01 10:34:02;;;;;;;1.43;0.90;;;;;;;25.14;31.48;102178.66;4956031;28;20487;-75
2022/09/01 10:36:32;;;;;;;1.30;1.10;;;;;;;25.15;32.10;102172.69;4956441;28;20209;-74
2022/09/01 10:39:01;;;;;;;2.47;1.02;;;;;;;25.17;31.81;102164.75;4955907;28;20047;-75
2022/09/01 10:41:56;;;;;;;0.90;0.90;;;;;;;25.18;32.53;102168.94;4956370;28;20058;-75
2022/09/01 10:44:34;;;;;;;1.30;1.20;;;;;;;25.14;32.57;102165.03;4955922;28;20509;-74
2022/09/01 10:47:09;;;;;;;1.00;1.00;;;;;;;25.21;32.06;102170.63;4956162;28;20468;-76
2022/09/01 10:49:45;;;;;;;1.35;1.10;;;;;;;24.99;32.36;102159.19;4955959;28;20048;-76
2022/09/01 10:52:38;;;;;;;1.00;1.00;;;;;;;25.02;32.46;102160.91;4955960;28;20103;-77
2022/09/01 10:55:08;;;;;;;1.88;1.10;;;;;;;25.04;31.66;102152.97;4955660;28;20048;-75
2022/09/01 10:57:47;;;;;;;4.35;3.45;;;;;;;25.06;31.71;102153.94;4955745;28;20059;-76
2022/09/01 11:00:23;;;;;;;1.58;1.10;;;;;;;24.99;32.55;102161.91;4955701;28;20076;-77
2022/09/01 11:03:11;;;;;;;4.22;0.95;;;;;;;24.98;32.67;102161.16;4956011;28;20043;-76
2022/09/01 11:05:58;;;;;;;1.20;1.20;;;;;;;25.02;31.41;102160.91;4954742;28;20163;-75
2022/09/01 11:08:58;;;;;;;5.80;1.50;;;;;;;25.08;32.03;102153.44;4955596;28;20071;-76
2022/09/01 11:11:35;;;;;;;3.28;1.10;;;;;;;25.09;31.73;102152.19;4955882;28;20044;-76
2022/09/01 11:14:16;;;;;;;1.15;0.88;;;;;;;25.02;32.22;102139.84;4969782;28;20477;-77
2022/09/01 11:17:21;;;;;;;1.08;1.08;;;;;;;25.12;31.89;102160.09;4955455;28;20055;-75
2022/09/01 11:20:09;;;;;;;1.95;0.90;;;;;;;25.11;31.67;102149.69;4970705;28;20577;-76
2022/09/01 11:22:39;;;;;;;1.83;1.05;;;;;;;25.03;30.17;102148.75;4955849;28;20126;-75
2022/09/01 11:25:32;;;;;;;2.45;1.38;;;;;;;25.01;31.30;102146.53;4955283;28;20509;-77
2022/09/01 11:28:10;;;;;;;2.30;1.20;;;;;;;25.01;30.86;102141.09;4955118;28;20191;-79
2022/09/01 11:30:57;;;;;;;2.43;1.00;;;;;;;25.03;30.46;102143.31;4955596;28;20044;-78
2022/09/01 11:33:39;;;;;;;2.53;1.05;;;;;;;25.09;30.64;102144.00;4955101;28;20505;-75
2022/09/01 11:36:28;;;;;;;2.72;0.90;;;;;;;25.12;30.35;102135.56;4955200;28;20052;-76
2022/09/01 11:39:05;;;;;;;3.13;1.00;;;;;;;25.01;31.10;102141.09;4955031;28;20130;-75
2022/09/01 11:41:45;;;;;;;0.80;0.80;;;;;;;24.93;30.54;102129.97;4955137;28;20118;-75
2022/09/01 11:44:44;;;;;;;0.80;0.80;;;;;;;24.89;31.08;102132.22;4962801;28;20141;-75
2022/09/01 11:47:20;;;;;;;0.90;0.90;;;;;;;24.77;31.00;102117.25;4965210;28;20047;-75
2022/09/01 11:50:24;;;;;;;2.33;0.85;;;;;;;24.84;31.48;102124.84;4965714;28;21401;-75
2022/09/01 11:52:58;;;;;;;1.13;0.95;;;;;;;24.73;30.42;102130.38;4962649;28;20539;-76
2022/09/01 11:55:32;;;;;;;1.00;1.00;;;;;;;24.53;31.09;102126.03;4963381;28;20075;-75
2022/09/01 11:57:59;;;;;;;2.30;0.80;;;;;;;24.49;30.68;102127.56;4963327;28;20047;-75
2022/09/01 12:00:35;;;;;;;2.03;1.00;;;;;;;24.49;31.30;102114.69;4972835;28;20083;-75
2022/09/01 12:03:01;;;;;;;1.02;0.90;;;;;;;24.49;31.15;102114.69;4969587;28;20103;-75
2022/09/01 12:05:32;;;;;;;0.98;0.98;;;;;;;24.49;32.08;102108.50;4952715;28;20060;-75
2022/09/01 12:08:02;;;;;;;1.60;0.93;;;;;;;24.49;31.96;102109.25;4971947;28;20043;-75